createdAt,value
2023-01-07T00:01:08.106Z,14.37
2023-01-07T00:04:16.627Z,13.53
2023-01-07T00:07:22.828Z,11.27
2023-01-07T00:10:29.339Z,9.20
2023-01-07T00:13:37.764Z,8.87
2023-01-07T00:16:44.224Z,8.37
2023-01-07T00:19:50.556Z,6.27
2023-01-07T00:22:56.519Z,10.00
2023-01-07T00:26:04.447Z,9.27
2023-01-07T00:29:12.196Z,8.93
2023-01-07T00:32:18.372Z,7.40
2023-01-07T00:35:24.848Z,10.73
2023-01-07T00:38:31.224Z,7.97
2023-01-07T00:41:37.757Z,7.20
2023-01-07T00:44:45.647Z,10.33
2023-01-07T00:47:53.654Z,8.40
2023-01-07T00:51:00.018Z,8.57
2023-01-07T00:54:06.409Z,8.17
2023-01-07T00:57:14.088Z,11.20
2023-01-07T01:00:23.565Z,7.80
2023-01-07T01:03:31.288Z,10.50
2023-01-07T01:06:37.807Z,7.73
2023-01-07T01:09:43.861Z,5.33
2023-01-07T01:12:50.357Z,8.63
2023-01-07T01:15:58.103Z,9.07
2023-01-07T01:19:04.842Z,6.97
2023-01-07T01:22:11.258Z,6.17
2023-01-07T01:25:17.796Z,6.83
2023-01-07T01:28:23.935Z,8.20
2023-01-07T01:31:31.570Z,9.10
2023-01-07T01:34:38.180Z,10.30
2023-01-07T01:37:44.778Z,7.83
2023-01-07T01:40:50.983Z,7.83
2023-01-07T01:43:57.097Z,8.47
2023-01-07T01:47:07.722Z,10.60
2023-01-07T01:50:20.017Z,9.03
2023-01-07T01:53:31.019Z,7.80
2023-01-07T01:56:41.211Z,7.20
2023-01-07T01:59:50.732Z,6.80
2023-01-07T02:03:00.084Z,6.13
2023-01-07T02:06:07.401Z,10.23
2023-01-07T02:09:13.931Z,11.03
2023-01-07T02:12:40.581Z,9.30
2023-01-07T02:15:55.689Z,10.03
2023-01-07T02:19:43.387Z,7.20
2023-01-07T02:23:18.446Z,5.57
2023-01-07T02:26:59.153Z,7.13
2023-01-07T02:30:46.449Z,5.03
2023-01-07T02:34:00.198Z,7.10
2023-01-07T02:37:14.303Z,8.10
2023-01-07T02:40:26.246Z,9.33
2023-01-07T02:43:41.369Z,9.87
2023-01-07T02:46:53.065Z,7.33
2023-01-07T02:50:00.599Z,8.63
2023-01-07T02:53:09.490Z,8.10
2023-01-07T02:56:28.474Z,6.70
2023-01-07T03:00:05.615Z,7.57
2023-01-07T03:03:25.919Z,5.93
2023-01-07T03:06:48.210Z,7.67
2023-01-07T03:10:04.007Z,5.60
2023-01-07T03:13:15.792Z,6.30
2023-01-07T03:16:27.634Z,6.90
2023-01-07T03:19:37.529Z,7.60
2023-01-07T03:22:48.132Z,7.83
2023-01-07T03:25:56.817Z,8.00
2023-01-07T03:29:06.029Z,9.43
2023-01-07T03:32:16.789Z,7.90
2023-01-07T03:35:24.411Z,9.17
2023-01-07T03:38:32.942Z,8.03
2023-01-07T03:42:02.517Z,6.53
2023-01-07T03:45:12.553Z,7.37
2023-01-07T03:48:18.699Z,7.97
2023-01-07T03:51:25.227Z,6.50
2023-01-07T03:54:32.951Z,7.77
2023-01-07T03:57:39.467Z,7.77
2023-01-07T04:00:46.118Z,7.60
2023-01-07T04:03:52.539Z,10.23
2023-01-07T04:06:59.163Z,12.93
2023-01-07T04:10:08.898Z,10.27
2023-01-07T04:13:15.466Z,9.17
2023-01-07T04:16:22.102Z,7.00
2023-01-07T04:19:28.339Z,8.87
2023-01-07T04:22:34.986Z,7.57
2023-01-07T04:25:42.943Z,10.20
2023-01-07T04:28:49.081Z,14.83
2023-01-07T04:31:55.425Z,14.47
2023-01-07T04:35:01.563Z,14.43
2023-01-07T04:38:08.097Z,13.20
2023-01-07T04:41:16.413Z,12.53
2023-01-07T04:44:22.867Z,12.43
2023-01-07T04:47:29.017Z,11.37
2023-01-07T04:50:35.576Z,16.43
2023-01-07T04:53:41.796Z,17.37
2023-01-07T04:56:49.739Z,12.07
2023-01-07T04:59:56.257Z,8.50
2023-01-07T05:03:02.478Z,8.77
2023-01-07T05:06:09.558Z,9.73
2023-01-07T05:09:15.915Z,19.03
2023-01-07T05:12:23.557Z,18.57
2023-01-07T05:15:29.854Z,16.43
2023-01-07T05:18:36.412Z,11.60
2023-01-07T05:21:43.289Z,13.40
2023-01-07T05:24:49.619Z,11.30
2023-01-07T05:27:57.262Z,12.97
2023-01-07T05:31:03.465Z,13.37
2023-01-07T05:34:09.812Z,9.50
2023-01-07T05:37:16.317Z,13.30
2023-01-07T05:40:22.416Z,12.40
2023-01-07T05:43:29.836Z,13.03
2023-01-07T05:46:36.205Z,11.83
2023-01-07T05:49:42.322Z,12.17
2023-01-07T05:52:48.575Z,12.77
2023-01-07T05:55:57.745Z,14.33
2023-01-07T05:59:05.669Z,14.63
2023-01-07T06:02:12.005Z,11.63
2023-01-07T06:05:18.338Z,10.97
2023-01-07T06:08:24.787Z,12.73
2023-01-07T06:11:31.395Z,14.33
2023-01-07T06:14:39.359Z,12.87
2023-01-07T06:17:46.057Z,14.77
2023-01-07T06:20:52.466Z,10.37
2023-01-07T06:23:58.903Z,15.50
2023-01-07T06:27:05.582Z,62.83
2023-01-07T06:30:14.097Z,29.43
2023-01-07T06:33:20.667Z,25.83
2023-01-07T06:36:27.150Z,16.60
2023-01-07T06:39:33.269Z,16.00
2023-01-07T06:42:39.608Z,13.43
2023-01-07T06:45:47.282Z,9.37
2023-01-07T06:48:53.907Z,9.87
2023-01-07T06:52:00.115Z,15.77
2023-01-07T06:55:06.605Z,15.53
2023-01-07T06:58:13.044Z,21.13
2023-01-07T07:01:21.720Z,24.10
2023-01-07T07:04:28.412Z,26.70
2023-01-07T07:07:34.911Z,28.93
2023-01-07T07:10:41.371Z,29.17
2023-01-07T07:13:47.506Z,31.00
2023-01-07T07:16:55.141Z,28.00
2023-01-07T07:20:01.731Z,25.33
2023-01-07T07:23:07.965Z,24.77
2023-01-07T07:26:15.075Z,15.60
2023-01-07T07:29:21.924Z,16.07
2023-01-07T07:32:29.937Z,13.93
2023-01-07T07:35:36.449Z,12.53
2023-01-07T07:38:42.994Z,9.53
2023-01-07T07:41:49.243Z,9.43
2023-01-07T07:44:55.714Z,6.87
2023-01-07T07:48:03.235Z,6.70
2023-01-07T07:51:09.776Z,11.33
2023-01-07T07:54:16.095Z,11.63
2023-01-07T07:57:22.178Z,17.50
2023-01-07T08:00:28.030Z,14.37
2023-01-07T08:03:35.724Z,15.07
2023-01-07T08:06:42.181Z,12.70
2023-01-07T08:09:48.419Z,10.17
2023-01-07T08:12:54.703Z,13.57
2023-01-07T08:16:00.949Z,12.90
2023-01-07T08:19:08.503Z,13.90
2023-01-07T08:22:14.592Z,12.07
2023-01-07T08:25:20.984Z,9.67
2023-01-07T08:28:27.227Z,13.57
2023-01-07T08:31:33.971Z,13.83
2023-01-07T08:34:41.511Z,12.33
2023-01-07T08:37:48.068Z,10.93
2023-01-07T08:40:54.534Z,9.97
2023-01-07T08:44:00.802Z,10.17
2023-01-07T08:47:06.990Z,7.00
2023-01-07T08:50:14.848Z,8.03
2023-01-07T08:53:21.916Z,10.47
2023-01-07T08:56:28.052Z,8.23
2023-01-07T08:59:34.615Z,11.70
2023-01-07T09:02:40.666Z,10.87
2023-01-07T09:05:49.115Z,9.77
2023-01-07T09:08:55.443Z,8.60
2023-01-07T09:12:01.758Z,10.20
2023-01-07T09:15:09.883Z,11.23
2023-01-07T09:18:16.257Z,8.90
2023-01-07T09:21:23.967Z,6.27
2023-01-07T09:24:30.047Z,9.87
2023-01-07T09:27:37.427Z,5.87
2023-01-07T09:30:43.573Z,6.63
2023-01-07T09:33:50.323Z,6.77
2023-01-07T09:36:58.044Z,7.27
2023-01-07T09:40:04.812Z,7.27
2023-01-07T09:43:17.792Z,11.87
2023-01-07T09:46:24.771Z,10.40
2023-01-07T09:49:32.703Z,10.53
2023-01-07T09:52:44.988Z,16.10
2023-01-07T09:56:11.791Z,10.07
2023-01-07T09:59:20.830Z,7.30
2023-01-07T10:02:38.002Z,6.63
2023-01-07T10:05:57.455Z,8.47
2023-01-07T10:09:13.808Z,6.80
2023-01-07T10:12:28.002Z,6.90
2023-01-07T10:15:48.925Z,6.33
2023-01-07T10:19:02.903Z,8.17
2023-01-07T10:22:16.699Z,7.00
2023-01-07T10:25:29.200Z,7.17
2023-01-07T10:28:41.600Z,6.20
2023-01-07T10:31:48.409Z,7.57
2023-01-07T10:34:58.275Z,6.13
2023-01-07T10:38:06.912Z,6.80
2023-01-07T10:41:22.757Z,6.77
2023-01-07T10:44:53.818Z,5.40
2023-01-07T10:48:26.638Z,4.03
2023-01-07T10:51:54.723Z,2.93
2023-01-07T10:55:29.634Z,5.00
2023-01-07T10:58:41.794Z,8.13
2023-01-07T11:01:53.129Z,8.83
2023-01-07T11:05:01.088Z,9.60
2023-01-07T11:08:16.792Z,12.93
2023-01-07T11:11:25.500Z,9.73
2023-01-07T11:14:37.793Z,7.37
2023-01-07T11:17:50.307Z,6.70
2023-01-07T11:20:58.091Z,6.30
2023-01-07T11:24:32.831Z,4.87
2023-01-07T11:27:46.860Z,3.27
2023-01-07T11:31:00.411Z,5.23
2023-01-07T11:34:06.781Z,3.50
2023-01-07T11:37:31.004Z,3.60
2023-01-07T11:40:37.698Z,4.97
2023-01-07T11:43:50.231Z,4.80
2023-01-07T11:46:58.128Z,5.27
2023-01-07T11:50:04.751Z,10.13
2023-01-07T11:53:27.783Z,8.50
2023-01-07T11:56:35.067Z,7.03
2023-01-07T11:59:41.294Z,7.17
2023-01-07T12:03:01.750Z,8.00
2023-01-07T12:06:15.936Z,10.03
2023-01-07T12:09:27.014Z,10.33
2023-01-07T12:12:34.812Z,13.17
2023-01-07T12:15:53.194Z,13.20
2023-01-07T12:19:25.088Z,6.37
2023-01-07T12:22:42.235Z,5.60
2023-01-07T12:25:57.953Z,5.37
2023-01-07T12:29:17.267Z,9.20
2023-01-07T12:32:37.167Z,7.27
2023-01-07T12:35:46.097Z,5.73
2023-01-07T12:38:57.555Z,5.20
2023-01-07T12:42:09.459Z,13.27
2023-01-07T12:45:20.860Z,6.40
2023-01-07T12:48:37.542Z,5.53
2023-01-07T12:51:51.305Z,6.70
2023-01-07T12:55:03.114Z,6.77
2023-01-07T12:58:18.388Z,5.13
2023-01-07T13:01:30.247Z,6.03
2023-01-07T13:04:47.937Z,5.53
2023-01-07T13:08:04.290Z,8.63
2023-01-07T13:11:41.027Z,6.47
2023-01-07T13:14:52.190Z,9.43
2023-01-07T13:18:00.619Z,8.67
2023-01-07T13:21:09.965Z,7.57
2023-01-07T13:24:55.671Z,8.13
2023-01-07T13:28:17.858Z,12.53
2023-01-07T13:31:42.770Z,11.57
2023-01-07T13:35:04.259Z,7.23
2023-01-07T13:38:52.904Z,4.60
2023-01-07T13:42:15.167Z,5.63
2023-01-07T13:45:24.796Z,11.77
2023-01-07T13:48:34.805Z,4.67
2023-01-07T13:51:41.176Z,25.03
2023-01-07T13:54:59.431Z,14.20
2023-01-07T13:58:44.095Z,25.17
2023-01-07T14:02:21.985Z,24.87
2023-01-07T14:05:29.730Z,22.70
2023-01-07T14:08:36.186Z,24.50
2023-01-07T14:11:59.546Z,29.67
2023-01-07T14:15:39.265Z,27.53
2023-01-07T14:19:09.867Z,39.43
2023-01-07T14:22:29.813Z,58.43
2023-01-07T14:25:50.468Z,28.20
2023-01-07T14:29:33.143Z,33.67
2023-01-07T14:32:42.940Z,25.27
2023-01-07T14:36:00.845Z,27.13
2023-01-07T14:39:27.184Z,28.00
2023-01-07T14:42:44.851Z,31.90
2023-01-07T14:45:56.059Z,36.67
2023-01-07T14:49:27.585Z,37.10
2023-01-07T14:53:29.891Z,42.50
2023-01-07T14:56:50.547Z,36.40
2023-01-07T15:00:25.146Z,41.17
2023-01-07T15:04:01.250Z,40.60
2023-01-07T15:07:17.670Z,26.03
2023-01-07T15:10:44.505Z,45.93
2023-01-07T15:14:15.870Z,59.27
2023-01-07T15:17:22.198Z,45.13
2023-01-07T15:20:46.344Z,46.07
2023-01-07T15:24:02.793Z,38.43
2023-01-07T15:27:18.866Z,25.20
2023-01-07T15:30:44.249Z,27.73
2023-01-07T15:34:07.531Z,34.97
2023-01-07T15:37:15.541Z,39.47
2023-01-07T15:40:26.537Z,39.23
2023-01-07T15:43:33.499Z,38.00
2023-01-07T15:46:41.932Z,36.87
2023-01-07T15:49:48.353Z,32.60
2023-01-07T15:52:56.172Z,32.63
2023-01-07T15:56:06.795Z,37.07
2023-01-07T15:59:16.592Z,28.53
2023-01-07T16:02:27.909Z,26.00
2023-01-07T16:05:38.085Z,34.03
2023-01-07T16:08:45.907Z,36.97
2023-01-07T16:11:53.686Z,27.73
2023-01-07T16:15:00.454Z,24.07
2023-01-07T16:18:19.071Z,24.27
2023-01-07T16:21:27.634Z,22.73
2023-01-07T16:24:34.122Z,28.07
2023-01-07T16:27:41.868Z,33.87
2023-01-07T16:30:49.337Z,47.80
2023-01-07T16:33:58.273Z,27.23
2023-01-07T16:37:08.203Z,31.07
2023-01-07T16:40:21.855Z,31.47
2023-01-07T16:43:44.758Z,35.87
2023-01-07T16:47:07.696Z,42.03
2023-01-07T16:50:37.571Z,29.73
2023-01-07T16:53:43.621Z,35.67
2023-01-07T16:56:50.355Z,44.93
2023-01-07T17:00:01.782Z,58.57
2023-01-07T17:03:13.497Z,55.00
2023-01-07T17:06:24.950Z,49.00
2023-01-07T17:09:37.130Z,32.73
2023-01-07T17:12:43.594Z,39.47
2023-01-07T17:15:51.740Z,32.60
2023-01-07T17:18:59.620Z,35.07
2023-01-07T17:22:28.679Z,45.57
2023-01-07T17:25:35.890Z,30.13
2023-01-07T17:28:48.262Z,46.87
2023-01-07T17:31:55.992Z,38.63
2023-01-07T17:35:04.442Z,38.17
2023-01-07T17:38:13.828Z,30.20
2023-01-07T17:41:39.559Z,43.50
2023-01-07T17:44:45.912Z,40.07
2023-01-07T17:47:54.028Z,29.60
2023-01-07T17:51:01.566Z,26.27
2023-01-07T17:54:08.752Z,44.67
2023-01-07T17:57:14.861Z,36.47
2023-01-07T18:00:26.418Z,33.00
2023-01-07T18:03:34.062Z,44.07
2023-01-07T18:06:42.992Z,40.73
2023-01-07T18:09:49.512Z,53.90
2023-01-07T18:12:55.849Z,41.80
2023-01-07T18:16:01.963Z,42.10
2023-01-07T18:19:12.899Z,41.23
2023-01-07T18:22:20.731Z,38.77
2023-01-07T18:25:27.069Z,34.67
2023-01-07T18:28:33.140Z,43.13
2023-01-07T18:31:42.736Z,60.67
2023-01-07T18:34:50.409Z,49.00
2023-01-07T18:37:57.295Z,43.80
2023-01-07T18:41:03.597Z,63.60
2023-01-07T18:44:09.998Z,65.80
2023-01-07T18:47:16.064Z,65.23
2023-01-07T18:50:24.716Z,46.27
2023-01-07T18:53:30.984Z,38.60
2023-01-07T18:56:37.174Z,28.30
2023-01-07T18:59:43.558Z,29.67
2023-01-07T19:02:49.943Z,29.57
2023-01-07T19:05:59.070Z,33.00
2023-01-07T19:09:05.530Z,32.93
2023-01-07T19:12:12.570Z,32.07
2023-01-07T19:15:19.516Z,16.83
2023-01-07T19:18:26.283Z,13.43
2023-01-07T19:21:34.129Z,15.67
2023-01-07T19:24:40.775Z,20.07
2023-01-07T19:27:47.067Z,17.97
2023-01-07T19:30:53.707Z,20.30
2023-01-07T19:34:00.195Z,15.20
2023-01-07T19:37:07.786Z,16.93
2023-01-07T19:40:14.652Z,19.87
2023-01-07T19:43:21.190Z,18.87
2023-01-07T19:46:28.528Z,24.90
2023-01-07T19:49:36.173Z,25.37
2023-01-07T19:52:44.414Z,30.27
2023-01-07T19:55:52.198Z,37.83
2023-01-07T19:58:59.338Z,47.43
2023-01-07T20:02:05.952Z,32.13
2023-01-07T20:05:12.186Z,33.83
2023-01-07T20:08:19.701Z,27.40
2023-01-07T20:11:26.477Z,25.80
2023-01-07T20:14:32.623Z,26.47
2023-01-07T20:17:38.903Z,35.77
2023-01-07T20:20:44.992Z,43.07
2023-01-07T20:23:53.173Z,30.40
2023-01-07T20:26:59.207Z,14.13
2023-01-07T20:30:06.501Z,12.57
2023-01-07T20:33:12.718Z,14.77
2023-01-07T20:36:20.450Z,17.83
2023-01-07T20:39:28.480Z,19.87
2023-01-07T20:42:34.916Z,20.40
2023-01-07T20:45:41.222Z,22.43
2023-01-07T20:48:47.586Z,18.80
2023-01-07T20:51:54.040Z,20.83
2023-01-07T20:55:02.176Z,22.43
2023-01-07T20:58:08.863Z,19.87
2023-01-07T21:01:17.811Z,15.67
2023-01-07T21:04:24.517Z,18.87
2023-01-07T21:07:30.805Z,16.43
2023-01-07T21:10:39.325Z,17.30
2023-01-07T21:13:45.797Z,22.77
2023-01-07T21:16:51.997Z,24.20
2023-01-07T21:19:58.283Z,21.40
2023-01-07T21:23:04.507Z,20.80
2023-01-07T21:26:13.477Z,19.73
2023-01-07T21:29:20.216Z,19.33
2023-01-07T21:32:26.798Z,21.53
2023-01-07T21:35:33.195Z,27.93
2023-01-07T21:38:39.466Z,23.17
2023-01-07T21:41:46.921Z,17.07
2023-01-07T21:44:53.206Z,13.70
2023-01-07T21:47:59.356Z,12.93
2023-01-07T21:51:07.475Z,13.03
2023-01-07T21:54:13.802Z,14.13
2023-01-07T21:57:21.464Z,11.40
2023-01-07T22:00:27.861Z,18.33
2023-01-07T22:03:34.461Z,16.93
2023-01-07T22:06:41.155Z,17.43
2023-01-07T22:09:48.210Z,18.13
2023-01-07T22:12:55.960Z,29.37
2023-01-07T22:16:02.055Z,31.83
2023-01-07T22:19:08.679Z,31.33
2023-01-07T22:22:16.788Z,29.13
2023-01-07T22:25:23.106Z,30.70
2023-01-07T22:28:33.576Z,25.73
2023-01-07T22:31:39.800Z,18.70
2023-01-07T22:34:46.142Z,15.00
2023-01-07T22:37:53.203Z,11.47
2023-01-07T22:41:00.160Z,10.90
2023-01-07T22:44:14.354Z,6.70
2023-01-07T22:47:26.458Z,5.70
2023-01-07T22:50:33.497Z,6.10
2023-01-07T22:53:39.660Z,11.73
2023-01-07T22:56:46.652Z,15.63
2023-01-07T22:59:54.521Z,18.57
2023-01-07T23:03:00.683Z,19.40
2023-01-07T23:06:07.567Z,21.67
2023-01-07T23:09:14.095Z,24.33
2023-01-07T23:12:20.473Z,26.20
2023-01-07T23:15:28.320Z,23.63
2023-01-07T23:18:35.104Z,15.23
2023-01-07T23:21:42.676Z,10.30
2023-01-07T23:24:48.980Z,8.10
2023-01-07T23:27:55.972Z,11.87
2023-01-07T23:31:04.312Z,9.87
2023-01-07T23:34:11.204Z,9.43
2023-01-07T23:37:17.940Z,9.70
2023-01-07T23:40:24.814Z,12.97
2023-01-07T23:43:31.900Z,11.07
2023-01-07T23:46:39.868Z,13.27
2023-01-07T23:49:46.321Z,12.73
2023-01-07T23:52:52.729Z,7.93
2023-01-07T23:56:03.219Z,9.37
2023-01-07T23:59:10.467Z,8.77
